地図

経路データ

SID SEASON NUMBER BASIN SUBBASIN NAME ISO_TIME NATURE LAT LON WMO_WIND WMO_PRES WMO_AGENCY TRACK_TYPE DIST2LAND LANDFALL IFLAG USA_AGENCY USA_ATCF_ID USA_LAT USA_LON USA_RECORD USA_STATUS USA_WIND USA_PRES USA_SSHS USA_R34_NE USA_R34_SE USA_R34_SW USA_R34_NW USA_R50_NE USA_R50_SE USA_R50_SW USA_R50_NW USA_R64_NE USA_R64_SE USA_R64_SW USA_R64_NW USA_POCI USA_ROCI USA_RMW USA_EYE TOKYO_LAT TOKYO_LON TOKYO_GRADE TOKYO_WIND TOKYO_PRES TOKYO_R50_DIR TOKYO_R50_LONG TOKYO_R50_SHORT TOKYO_R30_DIR TOKYO_R30_LONG TOKYO_R30_SHORT TOKYO_LAND CMA_LAT CMA_LON CMA_CAT CMA_WIND CMA_PRES HKO_LAT HKO_LON HKO_CAT HKO_WIND HKO_PRES NEWDELHI_LAT NEWDELHI_LON NEWDELHI_GRADE NEWDELHI_WIND NEWDELHI_PRES NEWDELHI_CI NEWDELHI_DP NEWDELHI_POCI REUNION_LAT REUNION_LON REUNION_TYPE REUNION_WIND REUNION_PRES REUNION_TNUM REUNION_CI REUNION_RMW REUNION_R34_NE REUNION_R34_SE REUNION_R34_SW REUNION_R34_NW REUNION_R50_NE REUNION_R50_SE REUNION_R50_SW REUNION_R50_NW REUNION_R64_NE REUNION_R64_SE REUNION_R64_SW REUNION_R64_NW BOM_LAT BOM_LON BOM_TYPE BOM_WIND BOM_PRES BOM_TNUM BOM_CI BOM_RMW BOM_R34_NE BOM_R34_SE BOM_R34_SW BOM_R34_NW BOM_R50_NE BOM_R50_SE BOM_R50_SW BOM_R50_NW BOM_R64_NE BOM_R64_SE BOM_R64_SW BOM_R64_NW BOM_ROCI BOM_POCI BOM_EYE BOM_POS_METHOD BOM_PRES_METHOD NADI_LAT NADI_LON NADI_CAT NADI_WIND NADI_PRES WELLINGTON_LAT WELLINGTON_LON WELLINGTON_WIND WELLINGTON_PRES DS824_LAT DS824_LON DS824_STAGE DS824_WIND DS824_PRES TD9636_LAT TD9636_LON TD9636_STAGE TD9636_WIND TD9636_PRES TD9635_LAT TD9635_LON TD9635_WIND TD9635_PRES TD9635_ROCI NEUMANN_LAT NEUMANN_LON NEUMANN_CLASS NEUMANN_WIND NEUMANN_PRES MLC_LAT MLC_LON MLC_CLASS MLC_WIND MLC_PRES USA_GUST BOM_GUST BOM_GUST_PER REUNION_GUST REUNION_GUST_PER USA_SEAHGT USA_SEARAD_NE USA_SEARAD_SE USA_SEARAD_SW USA_SEARAD_NW STORM_SPEED STORM_DIR
1984305N13262 1984 107 EP MM SIMON 1984-10-31 00:00:00 TS 13.1000 -98.4000 25 hurdat_epa main 331 331 O_________O___ hurdat_epa EP191984 13.1000 -98.4000 TD 25 -1 13.1000 -98.4000 1 25 8 270
1984305N13262 1984 107 EP MM SIMON 1984-10-31 03:00:00 TS 13.0969 -98.7923 main 342 342 P_________P___ EP191984 13.1051 -98.7850 TD 27 -1 13.0722 -98.8142 1 26 8 269
1984305N13262 1984 107 EP MM SIMON 1984-10-31 06:00:00 TS 13.0888 -99.2107 30 hurdat_epa main 357 357 O_________P___ hurdat_epa EP191984 13.1000 -99.2000 TD 30 -1 13.0554 -99.2427 1 27 9 269
1984305N13262 1984 107 EP MM SIMON 1984-10-31 09:00:00 TS 13.0789 -99.6775 main 377 377 P_________P___ EP191984 13.0849 -99.6701 TD 30 -1 13.0608 -99.6998 1 28 10 271
1984305N13262 1984 107 EP MM SIMON 1984-10-31 12:00:00 TS 13.1000 -100.200 30 hurdat_epa main 397 397 O_________O___ hurdat_epa EP191984 13.1000 -100.200 TD 30 -1 13.1000 -100.200 1 30 11 275
1984305N13262 1984 107 EP MM SIMON 1984-10-31 15:00:00 TS 13.1782 -100.772 main 409 409 P_________P___ EP191984 13.1774 -100.778 TD 30 -1 13.1807 -100.754 1 31 12 280
1984305N13262 1984 107 EP MM SIMON 1984-10-31 18:00:00 TS 13.2992 -101.390 30 hurdat_epa main 422 422 O_________P___ hurdat_epa EP191984 13.3000 -101.400 TD 30 -1 13.2970 -101.360 1 32 13 282
1984305N13262 1984 107 EP MM SIMON 1984-10-31 21:00:00 TS 13.4361 -102.035 main 444 437 P_________P___ EP191984 13.4349 -102.043 TD 32 -1 13.4398 -102.011 1 33 13 283
1984305N13262 1984 107 EP MM SIMON 1984-11-01 00:00:00 TS 13.6000 -102.700 35 hurdat_epa main 448 446 O_________O___ hurdat_epa EP191984 13.6000 -102.700 TS 35 0 13.6000 -102.700 2 35 13 286
1984305N13262 1984 107 EP MM SIMON 1984-11-01 03:00:00 TS 13.7938 -103.343 main 457 457 P_________P___ EP191984 13.7996 -103.320 TS 40 0 13.7767 -103.414 2 37 14 287
1984305N13262 1984 107 EP MM SIMON 1984-11-01 06:00:00 TS 13.9912 -104.041 45 hurdat_epa main 472 472 O_________P___ hurdat_epa EP191984 14.0000 -104.000 TS 45 0 13.9647 -104.162 2 40 15 284
1984305N13262 1984 107 EP MM SIMON 1984-11-01 09:00:00 TS 14.1601 -104.853 main 482 482 P_________P___ EP191984 14.1651 -104.828 TS 45 0 14.1454 -104.929 2 42 16 281
1984305N13262 1984 107 EP MM SIMON 1984-11-01 12:00:00 TS 14.3000 -105.700 45 hurdat_epa main 505 505 O_________O___ hurdat_epa EP191984 14.3000 -105.700 TS 45 0 14.3000 -105.700 2 45 16 279
1984305N13262 1984 107 EP MM SIMON 1984-11-01 15:00:00 TS 14.4107 -106.501 main 541 541 P_________P___ EP191984 14.4148 -106.523 TS 45 0 14.3986 -106.435 2 45 15 277
1984305N13262 1984 107 EP MM SIMON 1984-11-01 18:00:00 TS 14.4927 -107.268 45 hurdat_epa main 587 587 O_________P___ hurdat_epa EP191984 14.5000 -107.300 TS 45 0 14.4710 -107.171 2 45 14 275
1984305N13262 1984 107 EP MM SIMON 1984-11-01 21:00:00 TS 14.5453 -107.975 main 626 623 P_________P___ EP191984 14.5494 -107.993 TS 45 0 14.5329 -107.922 2 45 14 274
1984305N13262 1984 107 EP MM SIMON 1984-11-02 00:00:00 TS 14.6000 -108.700 45 hurdat_epa main 661 661 O_________O___ hurdat_epa EP191984 14.6000 -108.700 TS 45 0 14.6000 -108.700 2 45 15 276
1984305N13262 1984 107 EP MM SIMON 1984-11-02 03:00:00 TS 14.6924 -109.527 main 709 709 P_________P___ EP191984 14.6924 -109.527 TS 45 0 14.6925 -109.525 2 46 17 277
1984305N13262 1984 107 EP MM SIMON 1984-11-02 06:00:00 TS 14.7980 -110.394 45 hurdat_epa main 770 770 O_________P___ hurdat_epa EP191984 14.8000 -110.400 TS 45 0 14.7921 -110.378 2 47 17 277
1984305N13262 1984 107 EP MM SIMON 1984-11-02 09:00:00 TS 14.8930 -111.248 main 825 825 P_________P___ EP191984 14.8922 -111.250 TS 47 0 14.8955 -111.241 2 48 17 277
1984305N13262 1984 107 EP MM SIMON 1984-11-02 12:00:00 TS 15.0000 -112.100 50 hurdat_epa main 892 892 O_________O___ hurdat_epa EP191984 15.0000 -112.100 TS 50 0 15.0000 -112.100 2 50 17 279
1984305N13262 1984 107 EP MM SIMON 1984-11-02 15:00:00 TS 15.1518 -112.951 main 917 917 P_________P___ EP191984 15.1573 -112.957 TS 52 0 15.1355 -112.931 2 51 17 280
1984305N13262 1984 107 EP MM SIMON 1984-11-02 18:00:00 TS 15.2915 -113.789 55 hurdat_epa main 939 939 O_________P___ hurdat_epa EP191984 15.3000 -113.800 TS 55 0 15.2661 -113.756 2 52 16 278
1984305N13262 1984 107 EP MM SIMON 1984-11-02 21:00:00 TS 15.3813 -114.600 main 967 967 P_________P___ EP191984 15.3871 -114.607 TS 55 0 15.3637 -114.578 2 53 16 274
1984305N13262 1984 107 EP MM SIMON 1984-11-03 00:00:00 TS 15.4000 -115.400 55 hurdat_epa main 1012 1012 O_________O___ hurdat_epa EP191984 15.4000 -115.400 TS 55 0 15.4000 -115.400 2 55 15 268
1984305N13262 1984 107 EP MM SIMON 1984-11-03 03:00:00 TS 15.3340 -116.205 main 1070 1070 P_________P___ EP191984 15.3296 -116.193 TS 55 0 15.3473 -116.242 2 55 16 263
1984305N13262 1984 107 EP MM SIMON 1984-11-03 06:00:00 TS 15.2080 -117.020 55 hurdat_epa main 1132 1132 O_________P___ hurdat_epa EP191984 15.2000 -117.000 TS 55 0 15.2319 -117.081 2 55 16 261
1984305N13262 1984 107 EP MM SIMON 1984-11-03 09:00:00 TS 15.0676 -117.875 main 1204 1204 P_________P___ EP191984 15.0650 -117.865 TS 55 0 15.0755 -117.904 2 55 17 259
1984305N13262 1984 107 EP MM SIMON 1984-11-03 12:00:00 TS 14.9000 -118.700 55 hurdat_epa main 1279 1279 O_________O___ hurdat_epa EP191984 14.9000 -118.700 TS 55 0 14.9000 -118.700 2 55 15 256
1984305N13262 1984 107 EP MM SIMON 1984-11-03 15:00:00 TS 14.7081 -119.424 main 1348 1348 P_________P___ EP191984 14.6995 -119.415 TS 50 0 14.7341 -119.449 2 51 14 254
1984305N13262 1984 107 EP MM SIMON 1984-11-03 18:00:00 TS 14.5140 -120.118 45 hurdat_epa main 1414 1414 O_________P___ hurdat_epa EP191984 14.5000 -120.100 TS 45 0 14.5559 -120.172 2 47 14 256
1984305N13262 1984 107 EP MM SIMON 1984-11-03 21:00:00 TS 14.3560 -120.847 main 1467 1467 P_________P___ EP191984 14.3498 -120.835 TS 42 0 14.3748 -120.884 2 43 15 258
1984305N13262 1984 107 EP MM SIMON 1984-11-04 00:00:00 TS 14.2000 -121.600 40 hurdat_epa main 1538 1538 O_________O___ hurdat_epa EP191984 14.2000 -121.600 TS 40 0 14.2000 -121.600 2 40 15 256
1984305N13262 1984 107 EP MM SIMON 1984-11-04 03:00:00 TS 13.9928 -122.394 main 1610 1610 P_________P___ EP191984 13.9925 -122.408 TS 40 0 13.9937 -122.352 2 40 16 255
1984305N13262 1984 107 EP MM SIMON 1984-11-04 06:00:00 TS 13.8005 -123.177 40 hurdat_epa main 1684 1684 O_________P___ hurdat_epa EP191984 13.8000 -123.200 TS 40 0 13.8020 -123.109 2 40 15 257
1984305N13262 1984 107 EP MM SIMON 1984-11-04 09:00:00 TS 13.6614 -123.896 main 1744 1744 P_________P___ EP191984 13.6621 -123.907 TS 40 0 13.6593 -123.861 2 40 14 262
1984305N13262 1984 107 EP MM SIMON 1984-11-04 12:00:00 TS 13.6000 -124.600 40 hurdat_epa main 1804 1804 O_________O___ hurdat_epa EP191984 13.6000 -124.600 TS 40 0 13.6000 -124.600 2 40 14 268
1984305N13262 1984 107 EP MM SIMON 1984-11-04 15:00:00 TS 13.6120 -125.357 main 1865 1865 P_________P___ EP191984 13.5975 -125.358 TS 37 0 13.6556 -125.354 2 37 15 275
1984305N13262 1984 107 EP MM SIMON 1984-11-04 18:00:00 TS 13.7238 -126.097 35 hurdat_epa main 1913 1913 O_________P___ hurdat_epa EP191984 13.7000 -126.100 TS 35 0 13.7951 -126.088 2 35 14 283
1984305N13262 1984 107 EP MM SIMON 1984-11-04 21:00:00 TS 13.9423 -126.785 main 1954 1947 P_________P___ EP191984 13.9274 -126.787 TS 32 -1 13.9870 -126.779 2 32 14 291
1984305N13262 1984 107 EP MM SIMON 1984-11-05 00:00:00 TS 14.2000 -127.400 30 hurdat_epa main 1980 1980 O_________O___ hurdat_epa EP191984 14.2000 -127.400 TD 30 -1 14.2000 -127.400 1 30 12 292
1984305N13262 1984 107 EP MM SIMON 1984-11-05 03:00:00 TS 14.3997 -127.942 main 1997 1997 P_________P___ EP191984 14.4073 -127.938 TD 30 -1 14.3768 -127.954 1 30 11 292
1984305N13262 1984 107 EP MM SIMON 1984-11-05 06:00:00 TS 14.5923 -128.409 30 hurdat_epa main 2015 2015 O_________P___ hurdat_epa EP191984 14.6000 -128.400 TD 30 -1 14.5692 -128.435 1 30 9 294
1984305N13262 1984 107 EP MM SIMON 1984-11-05 09:00:00 TS 14.7829 -128.835 main 2027 2027 P_________P___ EP191984 14.7849 -128.830 TD 30 -1 14.7770 -128.848 1 30 9 298
1984305N13262 1984 107 EP MM SIMON 1984-11-05 12:00:00 TS 15.0000 -129.200 30 hurdat_epa main 2040 2038 O_________O___ hurdat_epa EP191984 15.0000 -129.200 TD 30 -1 15.0000 -129.200 1 30 8 307
1984305N13262 1984 107 EP MM SIMON 1984-11-05 15:00:00 TS 15.2919 -129.529 main 2038 2038 P_________P___ EP191984 15.2999 -129.530 TD 30 -1 15.2677 -129.528 1 30 8 315
1984305N13262 1984 107 EP MM SIMON 1984-11-05 18:00:00 TS 15.5861 -129.799 30 hurdat_epa main 2038 2038 O_________P___ hurdat_epa EP191984 15.6000 -129.800 TD 30 -1 15.5446 -129.797 1 30 7 318
1984305N13262 1984 107 EP MM SIMON 1984-11-05 21:00:00 TS 15.8223 -130.027 main 2038 2038 P_________P___ EP191984 15.8300 -130.030 TD 30 -1 15.7991 -130.018 1 30 6 317
1984305N13262 1984 107 EP MM SIMON 1984-11-06 00:00:00 TS 16.0000 -130.200 30 hurdat_epa main 2038 2038 O_________O___ hurdat_epa EP191984 16.0000 -130.200 TD 30 -1 16.0000 -130.200 1 30 4 317
1984305N13262 1984 107 EP MM SIMON 1984-11-06 03:00:00 TS 16.1263 -130.322 main 2038 2038 P_________P___ EP191984 16.1300 -130.308 TD 27 -1 16.1155 -130.365 1 30 3 312
1984305N13262 1984 107 EP MM SIMON 1984-11-06 06:00:00 TS 16.1937 -130.424 25 hurdat_epa main 2039 2039 O_________P___ hurdat_epa EP191984 16.2000 -130.400 TD 25 -1 16.1748 -130.495 1 30 2 289
1984305N13262 1984 107 EP MM SIMON 1984-11-06 09:00:00 TS 16.2048 -130.563 main 2055 2055 P_________P___ EP191984 16.2075 -130.550 TD 27 -1 16.1968 -130.603 1 30 3 271
1984305N13262 1984 107 EP MM SIMON 1984-11-06 12:00:00 TS 16.2000 -130.700 30 hurdat_epa main 2063 2063 O_________O___ hurdat_epa EP191984 16.2000 -130.700 TD 30 -1 16.2000 -130.700 1 30 2 280
1984305N13262 1984 107 EP MM SIMON 1984-11-06 15:00:00 TS 16.2477 -130.806 main 2071 2064 P_________P___ EP191984 16.2575 -130.807 TD 27 -1 16.2184 -130.803 1 28 2 293
1984305N13262 1984 107 EP MM SIMON 1984-11-06 18:00:00 TS 16.2806 -130.900 25 hurdat_epa main 2072 2072 O_________P___ hurdat_epa EP191984 16.3000 -130.900 TD 25 -1 16.2224 -130.900 1 27 2 270
1984305N13262 1984 107 EP MM SIMON 1984-11-06 21:00:00 TS 16.2469 -130.994 main 2087 2087 P_________P___ EP191984 16.2575 -130.993 TD 25 -1 16.2153 -130.997 1 26 2 247
1984305N13262 1984 107 EP MM SIMON 1984-11-07 00:00:00 TS 16.2000 -131.100 25 hurdat_epa main 2095 2095 O_________O___ hurdat_epa EP191984 16.2000 -131.100 TD 25 -1 16.2000 -131.100 1 25 2 258
1984305N13262 1984 107 EP MM SIMON 1984-11-07 03:00:00 TS 16.1985 -131.231 main 2103 2103 P_________P___ EP191984 16.2000 -131.250 TD 25 -1 16.1941 -131.173 1 25 3 269
1984305N13262 1984 107 EP MM SIMON 1984-11-07 06:00:00 TS 16.1949 -131.365 25 hurdat_epa main 2120 2120 O_________P___ hurdat_epa EP191984 16.2000 -131.400 TD 25 -1 16.1795 -131.260 1 25 2 258
1984305N13262 1984 107 EP MM SIMON 1984-11-07 09:00:00 TS 16.1556 -131.450 main 2128 2128 P_________P___ EP191984 16.1574 -131.470 TD 25 -1 16.1502 -131.392 1 25 2 247
1984305N13262 1984 107 EP MM SIMON 1984-11-07 12:00:00 TS 16.1000 -131.600 25 hurdat_epa main 2143 2143 O_________O___ hurdat_epa EP191984 16.1000 -131.600 TD 25 -1 16.1000 -131.600 1 25 4 257
1984305N13262 1984 107 EP MM SIMON 1984-11-07 15:00:00 TS 16.0549 -131.900 main 2168 2168 P_________P___ EP191984 16.0650 -131.897 TD 25 -1 16.0248 -131.906 1 25 7 260
1984305N13262 1984 107 EP MM SIMON 1984-11-07 18:00:00 TS 15.9822 -132.298 25 hurdat_epa main 2208 2208 O_________P___ hurdat_epa EP191984 16.0000 -132.300 TD 25 -1 15.9287 -132.293 1 25 8 256
1984305N13262 1984 107 EP MM SIMON 1984-11-07 21:00:00 TS 15.8572 -132.740 main 2248 2248 P_________P___ EP191984 15.8702 -132.743 TD 25 -1 15.8183 -132.733 1 25 9 252
1984305N13262 1984 107 EP MM SIMON 1984-11-08 00:00:00 TS 15.7000 -133.200 25 hurdat_epa main 2304 O_________O___ hurdat_epa EP191984 15.7000 -133.200 TD 25 -1 15.7000 -133.200 1 25 9 250

IBTrACS Databaseについて

本データベースは、米国NOAAが公開する1842年以降の世界の熱帯低気圧のベストトラックデータアーカイブInternational Best Track Archive for Climate Stewardship (IBTrACS)を、ウェブで閲覧しやすい形式に変換したものです。

最終更新日:2021-10-08